sensor_id;sensor_type;location;lat;lon;timestamp;pressure;altitude;pressure_sealevel;temperature;humidity
62976;BME280;49071;0.000;0.000;2023-04-09T06:26:55;101996.84;;;15.57;40.79
62976;BME280;49071;0.000;0.000;2023-04-09T06:29:55;101995.00;;;15.67;40.82
62976;BME280;49071;0.000;0.000;2023-04-09T06:32:55;101997.38;;;15.81;40.52
62976;BME280;49071;0.000;0.000;2023-04-09T06:35:55;102002.38;;;15.95;40.44
62976;BME280;49071;0.000;0.000;2023-04-09T06:38:56;102008.22;;;16.11;40.40
62976;BME280;49071;0.000;0.000;2023-04-09T06:41:56;102008.72;;;16.29;39.54
62976;BME280;49071;0.000;0.000;2023-04-09T06:44:56;102010.94;;;16.51;39.47
62976;BME280;49071;0.000;0.000;2023-04-09T06:47:57;101999.19;;;16.70;38.98
62976;BME280;49071;0.000;0.000;2023-04-09T06:50:57;102000.63;;;16.88;38.72
62976;BME280;49071;0.000;0.000;2023-04-09T06:53:57;101992.31;;;17.08;38.56
62976;BME280;49071;0.000;0.000;2023-04-09T06:56:58;101989.28;;;17.27;38.53
62976;BME280;49071;0.000;0.000;2023-04-09T06:59:58;102000.22;;;17.45;38.11
62976;BME280;49071;0.000;0.000;2023-04-09T07:02:58;102015.50;;;17.64;37.69
62976;BME280;49071;0.000;0.000;2023-04-09T07:05:58;102010.00;;;17.75;37.39
62976;BME280;49071;0.000;0.000;2023-04-09T07:08:58;102017.81;;;17.79;37.34
62976;BME280;49071;0.000;0.000;2023-04-09T07:11:59;102009.94;;;17.79;37.23
62976;BME280;49071;0.000;0.000;2023-04-09T07:15:03;102003.84;;;17.77;37.34
62976;BME280;49071;0.000;0.000;2023-04-09T07:18:04;102018.84;;;17.70;37.44
62976;BME280;49071;0.000;0.000;2023-04-09T07:21:05;102017.06;;;17.71;37.79
62976;BME280;49071;0.000;0.000;2023-04-09T07:24:05;102023.22;;;17.70;37.81
62976;BME280;49071;0.000;0.000;2023-04-09T07:27:05;102028.41;;;17.73;37.57
62976;BME280;49071;0.000;0.000;2023-04-09T07:30:05;102024.81;;;17.79;37.89
62976;BME280;49071;0.000;0.000;2023-04-09T07:33:06;102027.19;;;17.88;37.78
62976;BME280;49071;0.000;0.000;2023-04-09T07:36:06;102025.03;;;18.04;37.46
62976;BME280;49071;0.000;0.000;2023-04-09T07:39:06;102035.47;;;18.07;37.85
62976;BME280;49071;0.000;0.000;2023-04-09T07:42:06;102018.41;;;18.23;37.51
62976;BME280;49071;0.000;0.000;2023-04-09T07:45:07;102019.97;;;18.30;37.43
62976;BME280;49071;0.000;0.000;2023-04-09T07:48:07;102030.97;;;18.45;37.47
62976;BME280;49071;0.000;0.000;2023-04-09T07:51:08;102029.00;;;18.53;37.42
62976;BME280;49071;0.000;0.000;2023-04-09T07:54:08;102018.44;;;18.54;37.38
62976;BME280;49071;0.000;0.000;2023-04-09T07:57:08;102012.50;;;18.48;37.51
62976;BME280;49071;0.000;0.000;2023-04-09T08:00:08;102018.50;;;18.53;37.42
62976;BME280;49071;0.000;0.000;2023-04-09T08:03:09;102026.53;;;18.47;37.63
62976;BME280;49071;0.000;0.000;2023-04-09T08:06:10;102030.13;;;18.42;37.75
62976;BME280;49071;0.000;0.000;2023-04-09T08:09:11;102029.41;;;18.37;37.86
62976;BME280;49071;0.000;0.000;2023-04-09T08:12:11;102022.47;;;18.35;38.32
62976;BME280;49071;0.000;0.000;2023-04-09T08:15:11;102025.09;;;18.35;37.73
62976;BME280;49071;0.000;0.000;2023-04-09T08:18:11;102030.28;;;18.38;37.99
62976;BME280;49071;0.000;0.000;2023-04-09T08:21:12;102028.25;;;18.48;38.01
62976;BME280;49071;0.000;0.000;2023-04-09T08:24:12;102028.81;;;18.59;37.52
62976;BME280;49071;0.000;0.000;2023-04-09T08:27:12;102027.03;;;18.59;37.68
62976;BME280;49071;0.000;0.000;2023-04-09T08:30:12;102023.34;;;18.67;37.76
62976;BME280;49071;0.000;0.000;2023-04-09T08:33:13;102022.16;;;18.78;37.98
62976;BME280;49071;0.000;0.000;2023-04-09T08:36:13;102014.81;;;18.90;37.90
62976;BME280;49071;0.000;0.000;2023-04-09T08:39:14;102016.38;;;18.97;37.83
62976;BME280;49071;0.000;0.000;2023-04-09T08:42:14;102018.81;;;19.03;37.97
62976;BME280;49071;0.000;0.000;2023-04-09T08:45:15;102030.38;;;18.97;37.79
62976;BME280;49071;0.000;0.000;2023-04-09T08:48:16;102031.19;;;18.99;37.92
62976;BME280;49071;0.000;0.000;2023-04-09T08:51:20;102037.59;;;18.91;38.15
62976;BME280;49071;0.000;0.000;2023-04-09T08:54:21;102045.59;;;18.86;37.74
62976;BME280;49071;0.000;0.000;2023-04-09T08:57:22;102043.19;;;18.78;38.33
62976;BME280;49071;0.000;0.000;2023-04-09T09:00:22;102040.75;;;18.71;38.06
62976;BME280;49071;0.000;0.000;2023-04-09T09:03:22;102035.59;;;18.66;38.40
62976;BME280;49071;0.000;0.000;2023-04-09T09:06:23;102040.97;;;18.63;38.42
62976;BME280;49071;0.000;0.000;2023-04-09T09:09:25;102035.72;;;18.63;38.80
62976;BME280;49071;0.000;0.000;2023-04-09T09:15:35;102045.91;;;18.75;38.44
62976;BME280;49071;0.000;0.000;2023-04-09T09:18:39;102042.09;;;18.85;38.50
62976;BME280;49071;0.000;0.000;2023-04-09T09:21:40;102044.47;;;18.95;38.25
62976;BME280;49071;0.000;0.000;2023-04-09T09:24:51;102037.88;;;19.11;37.96
62976;BME280;49071;0.000;0.000;2023-04-09T09:27:51;102048.97;;;19.21;38.16
62976;BME280;49071;0.000;0.000;2023-04-09T09:30:51;102044.56;;;19.21;38.29
62976;BME280;49071;0.000;0.000;2023-04-09T09:33:52;102041.03;;;19.22;38.68
62976;BME280;49071;0.000;0.000;2023-04-09T09:36:52;102034.03;;;19.21;38.54
62976;BME280;49071;0.000;0.000;2023-04-09T09:39:53;102031.41;;;19.21;38.83
62976;BME280;49071;0.000;0.000;2023-04-09T09:42:53;102031.50;;;19.18;38.77
62976;BME280;49071;0.000;0.000;2023-04-09T09:45:54;102030.66;;;19.18;38.84
62976;BME280;49071;0.000;0.000;2023-04-09T09:48:55;102038.66;;;19.13;38.95
62976;BME280;49071;0.000;0.000;2023-04-09T09:51:55;102032.72;;;19.06;39.12
62976;BME280;49071;0.000;0.000;2023-04-09T09:54:56;102033.69;;;19.04;38.88
62976;BME280;49071;0.000;0.000;2023-04-09T09:58:03;102032.03;;;19.00;39.22
62976;BME280;49071;0.000;0.000;2023-04-09T10:01:06;102033.22;;;18.90;39.40
62976;BME280;49071;0.000;0.000;2023-04-09T10:04:08;102042.09;;;18.85;39.57
62976;BME280;49071;0.000;0.000;2023-04-09T10:07:12;102036.91;;;18.84;39.58
62976;BME280;49071;0.000;0.000;2023-04-09T10:10:12;102035.41;;;18.75;39.69
62976;BME280;49071;0.000;0.000;2023-04-09T10:13:15;102036.41;;;18.70;39.82
62976;BME280;49071;0.000;0.000;2023-04-09T10:16:18;102032.97;;;18.66;39.93
62976;BME280;49071;0.000;0.000;2023-04-09T10:19:19;102033.19;;;18.60;39.89
62976;BME280;49071;0.000;0.000;2023-04-09T10:22:22;102028.03;;;18.55;39.67
62976;BME280;49071;0.000;0.000;2023-04-09T10:25:25;102021.22;;;18.48;40.07
62976;BME280;49071;0.000;0.000;2023-04-09T10:28:25;102023.16;;;18.41;39.80
62976;BME280;49071;0.000;0.000;2023-04-09T10:31:26;102027.63;;;18.38;39.92
62976;BME280;49071;0.000;0.000;2023-04-09T10:34:26;102032.19;;;18.31;40.05
62976;BME280;49071;0.000;0.000;2023-04-09T10:37:27;102038.53;;;18.24;40.01
62976;BME280;49071;0.000;0.000;2023-04-09T10:40:27;102035.97;;;18.21;40.09
62976;BME280;49071;0.000;0.000;2023-04-09T10:43:28;102034.34;;;18.17;40.10
62976;BME280;49071;0.000;0.000;2023-04-09T10:46:29;102032.63;;;18.16;40.18
62976;BME280;49071;0.000;0.000;2023-04-09T10:49:39;102036.13;;;18.15;40.07
62976;BME280;49071;0.000;0.000;2023-04-09T10:52:40;102029.94;;;18.17;40.05
62976;BME280;49071;0.000;0.000;2023-04-09T10:55:46;102035.97;;;18.21;39.90
62976;BME280;49071;0.000;0.000;2023-04-09T10:58:47;102028.78;;;18.29;39.91
62976;BME280;49071;0.000;0.000;2023-04-09T11:01:51;102032.81;;;18.41;39.66
62976;BME280;49071;0.000;0.000;2023-04-09T11:08:11;102029.63;;;18.61;39.44
62976;BME280;49071;0.000;0.000;2023-04-09T11:11:12;102024.94;;;18.74;39.28
62976;BME280;49071;0.000;0.000;2023-04-09T11:14:17;102026.34;;;18.85;38.94
62976;BME280;49071;0.000;0.000;2023-04-09T11:17:18;102033.97;;;18.95;38.91
62976;BME280;49071;0.000;0.000;2023-04-09T11:20:19;102024.22;;;18.98;38.62
62976;BME280;49071;0.000;0.000;2023-04-09T11:23:20;102019.00;;;18.97;38.68
62976;BME280;49071;0.000;0.000;2023-04-09T11:26:24;102017.34;;;18.94;38.83
62976;BME280;49071;0.000;0.000;2023-04-09T11:29:33;102015.72;;;18.88;38.98
62976;BME280;49071;0.000;0.000;2023-04-09T11:32:34;102014.09;;;18.84;38.93
62976;BME280;49071;0.000;0.000;2023-04-09T11:35:34;102017.69;;;18.82;38.79
62976;BME280;49071;0.000;0.000;2023-04-09T11:38:37;102013.44;;;18.76;38.85
62976;BME280;49071;0.000;0.000;2023-04-09T11:41:38;102011.81;;;18.72;39.14
62976;BME280;49071;0.000;0.000;2023-04-09T11:44:38;102004.91;;;18.68;39.13
62976;BME280;49071;0.000;0.000;2023-04-09T11:47:39;101998.88;;;18.64;38.94
62976;BME280;49071;0.000;0.000;2023-04-09T11:50:40;102000.75;;;18.59;38.81
62976;BME280;49071;0.000;0.000;2023-04-09T11:53:40;102002.63;;;18.56;38.82
62976;BME280;49071;0.000;0.000;2023-04-09T11:56:41;102009.72;;;18.52;38.98
62976;BME280;49071;0.000;0.000;2023-04-09T11:59:41;102015.13;;;18.48;39.22
62976;BME280;49071;0.000;0.000;2023-04-09T12:02:46;102009.94;;;18.45;39.15
62976;BME280;49071;0.000;0.000;2023-04-09T12:05:46;102016.13;;;18.44;39.36
62976;BME280;49071;0.000;0.000;2023-04-09T12:08:51;102011.03;;;18.37;39.23
62976;BME280;49071;0.000;0.000;2023-04-09T12:11:51;102013.72;;;18.34;39.32
62976;BME280;49071;0.000;0.000;2023-04-09T12:14:52;102016.50;;;18.30;39.20
62976;BME280;49071;0.000;0.000;2023-04-09T12:17:55;102019.19;;;18.27;39.34
62976;BME280;49071;0.000;0.000;2023-04-09T12:20:56;102018.50;;;18.20;39.43
62976;BME280;49071;0.000;0.000;2023-04-09T12:23:56;102015.09;;;18.16;39.43
62976;BME280;49071;0.000;0.000;2023-04-09T12:26:56;102010.72;;;18.15;39.23
62976;BME280;49071;0.000;0.000;2023-04-09T12:29:56;102025.63;;;18.15;39.51
62976;BME280;49071;0.000;0.000;2023-04-09T12:32:57;102022.13;;;18.16;39.34
62976;BME280;49071;0.000;0.000;2023-04-09T12:35:57;102016.69;;;18.22;39.64
62976;BME280;49071;0.000;0.000;2023-04-09T12:38:57;102016.44;;;18.31;39.33
62976;BME280;49071;0.000;0.000;2023-04-09T12:41:58;102021.38;;;18.44;39.37
62976;BME280;49071;0.000;0.000;2023-04-09T12:44:58;102011.28;;;18.59;38.88
62976;BME280;49071;0.000;0.000;2023-04-09T12:47:58;101997.84;;;18.70;38.67
62976;BME280;49071;0.000;0.000;2023-04-09T12:50:58;101992.31;;;18.81;38.59
62976;BME280;49071;0.000;0.000;2023-04-09T12:53:58;101991.97;;;18.92;38.27
62976;BME280;49071;0.000;0.000;2023-04-09T12:56:59;101991.97;;;18.92;38.63
62976;BME280;49071;0.000;0.000;2023-04-09T12:59:59;101986.81;;;18.88;38.53
62976;BME280;49071;0.000;0.000;2023-04-09T13:02:59;101979.88;;;18.86;38.59
62976;BME280;49071;0.000;0.000;2023-04-09T13:06:00;101985.19;;;18.84;38.55
62976;BME280;49071;0.000;0.000;2023-04-09T13:09:00;101982.72;;;18.80;38.80
62976;BME280;49071;0.000;0.000;2023-04-09T13:12:00;101983.66;;;18.77;38.60
62976;BME280;49071;0.000;0.000;2023-04-09T13:15:01;101976.78;;;18.73;38.70
62976;BME280;49071;0.000;0.000;2023-04-09T13:18:01;101977.72;;;18.69;38.89
62976;BME280;49071;0.000;0.000;2023-04-09T13:21:02;101974.41;;;18.62;38.94
62976;BME280;49071;0.000;0.000;2023-04-09T13:24:02;101977.09;;;18.59;38.86
62976;BME280;49071;0.000;0.000;2023-04-09T13:27:03;101965.81;;;18.56;38.71
62976;BME280;49071;0.000;0.000;2023-04-09T13:30:04;101965.03;;;18.54;39.04
62976;BME280;49071;0.000;0.000;2023-04-09T13:33:04;101952.97;;;18.47;39.11
62976;BME280;49071;0.000;0.000;2023-04-09T13:36:04;101942.56;;;18.44;39.25
62976;BME280;49071;0.000;0.000;2023-04-09T13:39:05;101947.91;;;18.39;39.26
62976;BME280;49071;0.000;0.000;2023-04-09T13:42:05;101946.28;;;18.35;39.37
62976;BME280;49071;0.000;0.000;2023-04-09T13:45:06;101941.19;;;18.30;39.20
62976;BME280;49071;0.000;0.000;2023-04-09T13:48:06;101943.06;;;18.25;39.45
62976;BME280;49071;0.000;0.000;2023-04-09T13:51:06;101947.59;;;18.20;39.39
62976;BME280;49071;0.000;0.000;2023-04-09T13:54:06;101944.19;;;18.16;39.54
62976;BME280;49071;0.000;0.000;2023-04-09T13:57:07;101942.50;;;18.14;39.34
62976;BME280;49071;0.000;0.000;2023-04-09T14:00:07;101933.84;;;18.10;39.45
62976;BME280;49071;0.000;0.000;2023-04-09T14:03:08;101930.38;;;18.10;39.51
62976;BME280;49071;0.000;0.000;2023-04-09T14:06:08;101932.09;;;18.11;39.56
62976;BME280;49071;0.000;0.000;2023-04-09T14:09:09;101930.22;;;18.16;39.30
62976;BME280;49071;0.000;0.000;2023-04-09T14:12:09;101923.81;;;18.25;39.27
62976;BME280;49071;0.000;0.000;2023-04-09T14:15:09;101925.19;;;18.38;39.21
62976;BME280;49071;0.000;0.000;2023-04-09T14:18:10;101924.88;;;18.49;38.84
62976;BME280;49071;0.000;0.000;2023-04-09T14:21:10;101924.47;;;18.62;38.77
62976;BME280;49071;0.000;0.000;2023-04-09T14:24:10;101917.13;;;18.75;38.74
62976;BME280;49071;0.000;0.000;2023-04-09T14:27:11;101918.56;;;18.85;38.48
62976;BME280;49071;0.000;0.000;2023-04-09T14:30:11;101907.13;;;18.86;38.42
62976;BME280;49071;0.000;0.000;2023-04-09T14:33:11;101912.44;;;18.85;38.60
62976;BME280;49071;0.000;0.000;2023-04-09T14:36:11;101903.78;;;18.81;38.72
62976;BME280;49071;0.000;0.000;2023-04-09T14:39:12;101905.66;;;18.78;38.79
62976;BME280;49071;0.000;0.000;2023-04-09T14:42:12;101896.94;;;18.76;38.85
62976;BME280;49071;0.000;0.000;2023-04-09T14:45:13;101898.81;;;18.72;38.63
62976;BME280;49071;0.000;0.000;2023-04-09T14:48:13;101899.78;;;18.68;38.71
62976;BME280;49071;0.000;0.000;2023-04-09T14:51:13;101892.91;;;18.64;38.89
62976;BME280;49071;0.000;0.000;2023-04-09T14:54:13;101886.03;;;18.60;38.97
62976;BME280;49071;0.000;0.000;2023-04-09T14:57:14;101889.63;;;18.56;38.91
62976;BME280;49071;0.000;0.000;2023-04-09T15:00:14;101888.84;;;18.54;38.94
62976;BME280;49071;0.000;0.000;2023-04-09T15:03:14;101883.75;;;18.48;38.92
62976;BME280;49071;0.000;0.000;2023-04-09T15:06:14;101873.31;;;18.46;38.94
62976;BME280;49071;0.000;0.000;2023-04-09T15:09:15;101878.69;;;18.41;38.87
62976;BME280;49071;0.000;0.000;2023-04-09T15:12:15;101868.31;;;18.37;39.08
62976;BME280;49071;0.000;0.000;2023-04-09T15:15:15;101875.50;;;18.30;39.23
62976;BME280;49071;0.000;0.000;2023-04-09T15:18:15;101876.44;;;18.29;39.47
62976;BME280;49071;0.000;0.000;2023-04-09T15:21:16;101879.94;;;18.28;39.55
62976;BME280;49071;0.000;0.000;2023-04-09T15:24:16;101879.22;;;18.23;39.42
62976;BME280;49071;0.000;0.000;2023-04-09T15:27:16;101875.84;;;18.18;39.53
62976;BME280;49071;0.000;0.000;2023-04-09T15:30:17;101876.00;;;18.13;39.70
62976;BME280;49071;0.000;0.000;2023-04-09T15:33:17;101879.56;;;18.11;39.59
62976;BME280;49071;0.000;0.000;2023-04-09T15:36:17;101883.88;;;18.13;39.75
62976;BME280;49071;0.000;0.000;2023-04-09T15:39:17;101882.94;;;18.16;39.78
62976;BME280;49071;0.000;0.000;2023-04-09T15:42:18;101879.94;;;18.28;39.58
62976;BME280;49071;0.000;0.000;2023-04-09T15:45:21;101871.66;;;18.42;39.39
62976;BME280;49071;0.000;0.000;2023-04-09T15:48:21;101879.03;;;18.59;39.10
62976;BME280;49071;0.000;0.000;2023-04-09T15:51:21;101873.41;;;18.71;38.71
62976;BME280;49071;0.000;0.000;2023-04-09T15:54:22;101872.16;;;18.84;38.79
62976;BME280;49071;0.000;0.000;2023-04-09T15:57:22;101874.50;;;18.94;38.83
62976;BME280;49071;0.000;0.000;2023-04-09T16:00:22;101887.69;;;18.92;38.83
62976;BME280;49071;0.000;0.000;2023-04-09T16:03:23;101888.63;;;18.90;38.88
62976;BME280;49071;0.000;0.000;2023-04-09T16:06:23;101883.47;;;18.86;38.67
62976;BME280;49071;0.000;0.000;2023-04-09T16:09:24;101880.97;;;18.83;38.76
62976;BME280;49071;0.000;0.000;2023-04-09T16:12:24;101886.31;;;18.80;38.97
62976;BME280;49071;0.000;0.000;2023-04-09T16:15:24;101891.66;;;18.77;38.91
62976;BME280;49071;0.000;0.000;2023-04-09T16:18:25;101890.88;;;18.74;39.02
62976;BME280;49071;0.000;0.000;2023-04-09T16:21:25;101897.16;;;18.68;38.99
62976;BME280;49071;0.000;0.000;2023-04-09T16:24:26;101896.38;;;18.64;39.01
62976;BME280;49071;0.000;0.000;2023-04-09T16:27:27;101893.91;;;18.60;38.92
62976;BME280;49071;0.000;0.000;2023-04-09T16:30:27;101894.09;;;18.54;39.42
62976;BME280;49071;0.000;0.000;2023-04-09T16:33:27;101890.59;;;18.53;39.33
62976;BME280;49071;0.000;0.000;2023-04-09T16:36:28;101887.13;;;18.53;39.27
62976;BME280;49071;0.000;0.000;2023-04-09T16:39:28;101891.63;;;18.48;39.62
62976;BME280;49071;0.000;0.000;2023-04-09T16:42:28;101893.44;;;18.46;39.44
62976;BME280;49071;0.000;0.000;2023-04-09T16:45:29;101890.00;;;18.44;39.40
62976;BME280;49071;0.000;0.000;2023-04-09T16:48:29;101899.66;;;18.43;39.65
62976;BME280;49071;0.000;0.000;2023-04-09T16:51:30;101891.97;;;18.35;39.80
62976;BME280;49071;0.000;0.000;2023-04-09T16:54:30;101890.34;;;18.31;39.91
62976;BME280;49071;0.000;0.000;2023-04-09T16:57:30;101899.09;;;18.32;40.00
62976;BME280;49071;0.000;0.000;2023-04-09T17:00:30;101899.16;;;18.30;40.00
62976;BME280;49071;0.000;0.000;2023-04-09T17:03:30;101895.69;;;18.28;40.25
62976;BME280;49071;0.000;0.000;2023-04-09T17:06:31;101901.03;;;18.25;40.39
62976;BME280;49071;0.000;0.000;2023-04-09T17:09:31;101893.13;;;18.27;40.33
62976;BME280;49071;0.000;0.000;2023-04-09T17:12:31;101902.00;;;18.23;40.63
62976;BME280;49071;0.000;0.000;2023-04-09T17:15:31;101904.44;;;18.29;40.65
62976;BME280;49071;0.000;0.000;2023-04-09T17:18:31;101906.78;;;18.39;40.64
62976;BME280;49071;0.000;0.000;2023-04-09T17:21:32;101894.19;;;18.51;40.35
62976;BME280;49071;0.000;0.000;2023-04-09T17:24:32;101899.06;;;18.63;40.08
62976;BME280;49071;0.000;0.000;2023-04-09T17:27:35;101901.31;;;18.77;39.79
62976;BME280;49071;0.000;0.000;2023-04-09T17:30:35;101910.31;;;18.96;39.65
62976;BME280;49071;0.000;0.000;2023-04-09T17:33:36;101908.94;;;19.13;39.63
62976;BME280;49071;0.000;0.000;2023-04-09T17:36:37;101912.09;;;19.24;39.62
62976;BME280;49071;0.000;0.000;2023-04-09T17:39:37;101916.38;;;19.26;39.36
62976;BME280;49071;0.000;0.000;2023-04-09T17:42:37;101915.59;;;19.24;39.80
62976;BME280;49071;0.000;0.000;2023-04-09T17:45:37;101918.50;;;19.15;39.46
62976;BME280;49071;0.000;0.000;2023-04-09T17:48:38;101909.94;;;19.08;39.34
62976;BME280;49071;0.000;0.000;2023-04-09T17:51:38;101914.47;;;19.03;39.58
62976;BME280;49071;0.000;0.000;2023-04-09T17:54:38;101913.63;;;19.03;39.76
62976;BME280;49071;0.000;0.000;2023-04-09T17:57:39;101915.47;;;19.01;39.84
62976;BME280;49071;0.000;0.000;2023-04-09T18:00:39;101913.00;;;18.95;39.92
62976;BME280;49071;0.000;0.000;2023-04-09T18:03:40;101915.81;;;18.90;40.25
62976;BME280;49071;0.000;0.000;2023-04-09T18:06:44;101914.22;;;18.84;40.18
62976;BME280;49071;0.000;0.000;2023-04-09T18:09:44;101923.09;;;18.80;40.30
62976;BME280;49071;0.000;0.000;2023-04-09T18:12:45;101916.19;;;18.76;40.19
62976;BME280;49071;0.000;0.000;2023-04-09T18:15:45;101925.13;;;18.71;40.51
62976;BME280;49071;0.000;0.000;2023-04-09T18:18:46;101919.97;;;18.66;40.61
62976;BME280;49071;0.000;0.000;2023-04-09T18:21:46;101925.38;;;18.61;40.71
62976;BME280;49071;0.000;0.000;2023-04-09T18:24:46;101925.47;;;18.58;40.62
62976;BME280;49071;0.000;0.000;2023-04-09T18:27:46;101929.97;;;18.55;40.63
62976;BME280;49071;0.000;0.000;2023-04-09T18:30:46;101923.06;;;18.51;40.59
62976;BME280;49071;0.000;0.000;2023-04-09T18:33:46;101918.75;;;18.48;40.61
62976;BME280;49071;0.000;0.000;2023-04-09T18:36:47;101924.06;;;18.47;40.48
62976;BME280;49071;0.000;0.000;2023-04-09T18:39:47;101926.88;;;18.40;40.61
62976;BME280;49071;0.000;0.000;2023-04-09T18:42:48;101930.41;;;18.39;40.62
62976;BME280;49071;0.000;0.000;2023-04-09T18:45:49;101919.09;;;18.37;40.59
62976;BME280;49071;0.000;0.000;2023-04-09T18:48:49;101924.47;;;18.33;40.74
62976;BME280;49071;0.000;0.000;2023-04-09T18:51:49;101926.19;;;18.34;40.51
62976;BME280;49071;0.000;0.000;2023-04-09T18:54:50;101924.41;;;18.36;40.98
62976;BME280;49071;0.000;0.000;2023-04-09T18:57:50;101924.09;;;18.45;41.14
62976;BME280;49071;0.000;0.000;2023-04-09T19:00:50;101923.78;;;18.56;40.75
62976;BME280;49071;0.000;0.000;2023-04-09T19:03:50;101922.50;;;18.69;40.46
62976;BME280;49071;0.000;0.000;2023-04-09T19:06:50;101924.81;;;18.81;40.29
62976;BME280;49071;0.000;0.000;2023-04-09T19:09:51;101927.84;;;18.97;40.06
62976;BME280;49071;0.000;0.000;2023-04-09T19:12:51;101926.59;;;19.09;39.56
62976;BME280;49071;0.000;0.000;2023-04-09T19:15:52;101920.97;;;19.20;39.51
62976;BME280;49071;0.000;0.000;2023-04-09T19:18:53;101922.56;;;19.25;39.23
62976;BME280;49071;0.000;0.000;2023-04-09T19:21:53;101926.81;;;19.29;39.28
62976;BME280;49071;0.000;0.000;2023-04-09T19:24:53;101926.00;;;19.27;39.29
62976;BME280;49071;0.000;0.000;2023-04-09T19:27:53;101926.13;;;19.23;39.36
62976;BME280;49071;0.000;0.000;2023-04-09T19:30:54;101932.34;;;19.20;39.67
62976;BME280;49071;0.000;0.000;2023-04-09T19:33:54;101935.97;;;19.18;39.72
62976;BME280;49071;0.000;0.000;2023-04-09T19:36:54;101937.00;;;19.12;39.94
62976;BME280;49071;0.000;0.000;2023-04-09T19:39:55;101936.34;;;19.05;40.08
62976;BME280;49071;0.000;0.000;2023-04-09T19:42:56;101938.28;;;19.00;40.11
62976;BME280;49071;0.000;0.000;2023-04-09T19:45:56;101933.13;;;18.96;40.53
62976;BME280;49071;0.000;0.000;2023-04-09T19:48:57;101938.53;;;18.91;40.15
62976;BME280;49071;0.000;0.000;2023-04-09T19:51:57;101929.91;;;18.86;40.38
62976;BME280;49071;0.000;0.000;2023-04-09T19:54:57;101931.84;;;18.81;40.39
62976;BME280;49071;0.000;0.000;2023-04-09T19:57:58;101928.41;;;18.79;40.53
62976;BME280;49071;0.000;0.000;2023-04-09T20:00:58;101925.91;;;18.74;40.56
62976;BME280;49071;0.000;0.000;2023-04-09T20:03:58;101928.66;;;18.70;40.76
62976;BME280;49071;0.000;0.000;2023-04-09T20:06:58;101928.75;;;18.67;40.52
62976;BME280;49071;0.000;0.000;2023-04-09T20:09:59;101931.47;;;18.63;40.47
62976;BME280;49071;0.000;0.000;2023-04-09T20:12:59;101921.84;;;18.62;40.76
62976;BME280;49071;0.000;0.000;2023-04-09T20:16:00;101931.56;;;18.60;40.47
62976;BME280;49071;0.000;0.000;2023-04-09T20:19:00;101928.06;;;18.60;40.88
62976;BME280;49071;0.000;0.000;2023-04-09T20:22:01;101923.78;;;18.56;40.69
62976;BME280;49071;0.000;0.000;2023-04-09T20:25:01;101922.22;;;18.50;40.68
62976;BME280;49071;0.000;0.000;2023-04-09T20:28:01;101927.59;;;18.46;40.85
62976;BME280;49071;0.000;0.000;2023-04-09T20:31:02;101932.00;;;18.45;41.05
62976;BME280;49071;0.000;0.000;2023-04-09T20:34:03;101930.34;;;18.41;40.88
